createdAt,value
2023-09-29T00:00:18.631Z,101246.59
2023-09-29T00:02:47.813Z,101248.00
2023-09-29T00:05:18.862Z,101240.78
2023-09-29T00:07:47.464Z,101243.28
2023-09-29T00:10:18.401Z,101235.31
2023-09-29T00:12:47.646Z,101245.69
2023-09-29T00:15:16.339Z,101243.19
2023-09-29T00:17:44.436Z,101239.69
2023-09-29T00:20:18.139Z,101244.69
2023-09-29T00:22:46.139Z,101240.53
2023-09-29T00:25:14.116Z,101233.19
2023-09-29T00:27:43.413Z,101241.63
2023-09-29T00:30:13.131Z,101236.69
2023-09-29T00:32:45.569Z,101239.59
2023-09-29T00:35:22.556Z,101234.97
2023-09-29T00:37:50.516Z,101232.53
2023-09-29T00:40:18.716Z,101232.19
2023-09-29T00:42:50.025Z,101236.19
2023-09-29T00:45:20.872Z,101228.69
2023-09-29T00:47:50.930Z,101232.84
2023-09-29T00:50:21.202Z,101225.16
2023-09-29T00:52:52.229Z,101226.81
2023-09-29T00:55:23.697Z,101224.19
2023-09-29T00:57:53.074Z,101222.69
2023-09-29T01:00:31.203Z,101225.00
2023-09-29T01:02:59.680Z,101225.34
2023-09-29T01:05:28.073Z,101222.69
2023-09-29T01:07:56.307Z,101221.03
2023-09-29T01:10:25.255Z,101212.06
2023-09-29T01:12:55.205Z,101207.69
2023-09-29T01:15:23.267Z,101204.72
2023-09-29T01:17:51.299Z,101202.97
2023-09-29T01:20:26.353Z,101208.16
2023-09-29T01:22:54.478Z,101205.00
2023-09-29T01:25:23.930Z,101205.00
2023-09-29T01:27:53.205Z,101210.72
2023-09-29T01:30:21.288Z,101210.91
2023-09-29T01:32:50.412Z,101205.25
2023-09-29T01:35:19.155Z,101205.63
2023-09-29T01:37:47.754Z,101212.59
2023-09-29T01:40:15.883Z,101208.22
2023-09-29T01:42:47.128Z,101206.53
2023-09-29T01:45:15.219Z,101211.06
2023-09-29T01:47:44.580Z,101210.72
2023-09-29T01:50:15.938Z,101199.69
2023-09-29T01:52:44.157Z,101210.09
2023-09-29T01:55:15.694Z,101205.31
2023-09-29T01:57:45.620Z,101199.78
2023-09-29T02:00:16.353Z,101200.59
2023-09-29T02:02:45.950Z,101199.78
2023-09-29T02:05:14.398Z,101198.75
2023-09-29T02:07:42.356Z,101193.75
2023-09-29T02:10:10.909Z,101203.47
2023-09-29T02:12:48.188Z,101199.59
2023-09-29T02:15:19.202Z,101203.38
2023-09-29T02:17:49.237Z,101188.09
2023-09-29T02:20:21.482Z,101198.00
2023-09-29T02:22:50.181Z,101196.53
2023-09-29T02:25:18.584Z,101203.38
2023-09-29T02:27:48.011Z,101197.81
2023-09-29T02:30:16.087Z,101194.75
2023-09-29T02:32:45.975Z,101190.41
2023-09-29T02:35:13.920Z,101190.75
2023-09-29T02:37:42.418Z,101189.28
2023-09-29T02:40:13.203Z,101188.38
2023-09-29T02:42:41.645Z,101183.38
2023-09-29T02:45:10.620Z,101177.31
2023-09-29T02:47:40.436Z,101187.69
2023-09-29T02:50:11.320Z,101185.38
2023-09-29T02:52:40.314Z,101183.41
2023-09-29T02:55:13.761Z,101178.50
2023-09-29T02:57:43.674Z,101177.94
2023-09-29T03:00:16.821Z,101171.72
2023-09-29T03:02:45.026Z,101174.22
2023-09-29T03:05:15.503Z,101171.34
2023-09-29T03:07:44.562Z,101163.19
2023-09-29T03:10:14.548Z,101166.19
2023-09-29T03:12:43.856Z,101168.41
2023-09-29T03:15:14.895Z,101169.06
2023-09-29T03:17:42.961Z,101168.56
2023-09-29T03:20:12.417Z,101164.88
2023-09-29T03:22:42.118Z,101174.13
2023-09-29T03:25:11.715Z,101169.88
2023-09-29T03:27:41.068Z,101175.25
2023-09-29T03:30:11.060Z,101179.63
2023-09-29T03:32:39.286Z,101176.63
2023-09-29T03:35:10.121Z,101173.13
2023-09-29T03:37:40.840Z,101178.38
2023-09-29T03:40:12.499Z,101181.72
2023-09-29T03:42:42.770Z,101182.09
2023-09-29T03:45:12.311Z,101180.44
2023-09-29T03:47:40.669Z,101178.38
2023-09-29T03:50:10.105Z,101176.19
2023-09-29T03:52:38.272Z,101173.84
2023-09-29T03:55:07.283Z,101163.53
2023-09-29T03:57:38.766Z,101160.84
2023-09-29T04:00:13.190Z,101161.38
2023-09-29T04:02:42.626Z,101171.75
2023-09-29T04:05:11.477Z,101175.28
2023-09-29T04:07:41.205Z,101165.38
2023-09-29T04:10:10.863Z,101173.84
2023-09-29T04:12:41.770Z,101163.47
2023-09-29T04:15:11.054Z,101169.56
2023-09-29T04:17:39.719Z,101170.88
2023-09-29T04:20:09.023Z,101167.53
2023-09-29T04:22:37.049Z,101171.03
2023-09-29T04:25:06.035Z,101180.56
2023-09-29T04:27:34.032Z,101178.91
2023-09-29T04:30:04.870Z,101178.25
2023-09-29T04:32:33.122Z,101186.59
2023-09-29T04:35:01.173Z,101178.91
2023-09-29T04:37:29.131Z,101185.59
2023-09-29T04:39:57.856Z,101185.94
2023-09-29T04:42:25.768Z,101186.97
2023-09-29T04:44:53.663Z,101187.78
2023-09-29T04:47:23.638Z,101177.91
2023-09-29T04:49:51.594Z,101182.59
2023-09-29T04:52:19.703Z,101178.25
2023-09-29T04:54:47.721Z,101181.94
2023-09-29T04:57:15.671Z,101179.94
2023-09-29T04:59:44.074Z,101169.19
2023-09-29T05:02:12.059Z,101167.41
2023-09-29T05:04:41.611Z,101166.63
2023-09-29T05:07:09.576Z,101158.56
2023-09-29T05:09:37.826Z,101159.22
2023-09-29T05:12:06.851Z,101159.88
2023-09-29T05:14:34.852Z,101160.88
2023-09-29T05:17:02.809Z,101162.75
2023-09-29T05:19:30.751Z,101173.47
2023-09-29T05:22:00.717Z,101185.19
2023-09-29T05:24:28.692Z,101180.53
2023-09-29T05:26:56.683Z,101178.88
2023-09-29T05:29:24.610Z,101182.31
2023-09-29T05:31:52.576Z,101185.03
2023-09-29T05:34:20.555Z,101193.63
2023-09-29T05:36:48.527Z,101183.34
2023-09-29T05:39:18.533Z,101177.78
2023-09-29T05:41:46.422Z,101175.09
2023-09-29T05:44:14.361Z,101173.16
2023-09-29T05:46:42.368Z,101170.38
2023-09-29T05:49:11.026Z,101167.69
2023-09-29T05:51:39.048Z,101183.03
2023-09-29T05:54:07.218Z,101172.56
2023-09-29T05:56:36.589Z,101175.34
2023-09-29T05:59:05.137Z,101175.09
2023-09-29T06:01:33.038Z,101180.28
2023-09-29T06:04:01.223Z,101174.13
2023-09-29T06:06:29.495Z,101184.50
2023-09-29T06:08:57.481Z,101191.38
2023-09-29T06:11:25.397Z,101194.16
2023-09-29T06:13:54.768Z,101190.19
2023-09-29T06:16:23.722Z,101200.94
2023-09-29T06:18:52.227Z,101192.25
2023-09-29T06:21:20.222Z,101190.09
2023-09-29T06:23:48.094Z,101189.16
2023-09-29T06:26:16.037Z,101199.34
2023-09-29T06:28:44.048Z,101201.38
2023-09-29T06:31:13.394Z,101199.16
2023-09-29T06:33:41.540Z,101190.69
2023-09-29T06:36:09.641Z,101192.59
2023-09-29T06:38:37.672Z,101193.47
2023-09-29T06:41:05.631Z,101186.88
2023-09-29T06:43:33.586Z,101197.31
2023-09-29T06:46:02.430Z,101196.34
2023-09-29T06:48:32.010Z,101194.25
2023-09-29T06:51:01.675Z,101202.25
2023-09-29T06:53:32.260Z,101197.06
2023-09-29T06:56:00.709Z,101208.16
2023-09-29T06:58:28.945Z,101203.78
2023-09-29T07:01:01.265Z,101196.88
2023-09-29T07:03:32.658Z,101200.41
2023-09-29T07:06:02.143Z,101205.19
2023-09-29T07:08:30.662Z,101198.41
2023-09-29T07:10:59.033Z,101209.97
2023-09-29T07:13:27.056Z,101194.69
2023-09-29T07:15:54.908Z,101197.50
2023-09-29T07:18:23.222Z,101203.91
2023-09-29T07:20:54.765Z,101204.69
2023-09-29T07:23:24.083Z,101203.09
2023-09-29T07:25:52.882Z,101202.72
2023-09-29T07:28:21.924Z,101205.28
2023-09-29T07:30:50.245Z,101208.06
2023-09-29T07:33:18.339Z,101205.38
2023-09-29T07:35:47.138Z,101197.53
2023-09-29T07:38:18.870Z,101201.78
2023-09-29T07:40:47.280Z,101191.84
2023-09-29T07:43:15.177Z,101201.63
2023-09-29T07:45:44.001Z,101199.72
2023-09-29T07:48:13.038Z,101194.44
2023-09-29T07:50:41.149Z,101202.50
2023-09-29T07:53:10.073Z,101203.13
2023-09-29T07:55:39.889Z,101189.22
2023-09-29T07:58:08.198Z,101196.91
2023-09-29T08:00:36.074Z,101195.78
2023-09-29T08:03:04.118Z,101209.19
2023-09-29T08:05:32.449Z,101200.34
2023-09-29T08:08:00.466Z,101196.63
2023-09-29T08:10:28.414Z,101196.09
2023-09-29T08:12:57.792Z,101192.19
2023-09-29T08:15:26.005Z,101197.81
2023-09-29T08:17:54.212Z,101187.41
2023-09-29T08:20:22.170Z,101184.25
2023-09-29T08:22:51.416Z,101186.09
2023-09-29T08:25:20.608Z,101181.97
2023-09-29T08:27:48.907Z,101183.75
2023-09-29T08:30:18.846Z,101186.75
2023-09-29T08:32:47.047Z,101185.84
2023-09-29T08:35:16.127Z,101194.75
2023-09-29T08:37:44.917Z,101197.13
2023-09-29T08:40:14.889Z,101196.72
2023-09-29T08:42:46.596Z,101186.09
2023-09-29T08:45:14.691Z,101182.78
2023-09-29T08:47:44.061Z,101189.09
2023-09-29T08:50:13.190Z,101192.34
2023-09-29T08:52:45.825Z,101190.88
2023-09-29T08:55:14.968Z,101190.22
2023-09-29T08:57:44.796Z,101193.34
2023-09-29T09:00:15.183Z,101197.53
2023-09-29T09:02:45.836Z,101198.34
2023-09-29T09:05:16.016Z,101202.84
2023-09-29T09:07:44.810Z,101210.19
2023-09-29T09:10:26.964Z,101212.28
2023-09-29T09:12:59.561Z,101217.91
2023-09-29T09:15:27.744Z,101219.09
2023-09-29T09:17:57.578Z,101219.41
2023-09-29T09:20:26.149Z,101211.56
2023-09-29T09:23:01.102Z,101212.06
2023-09-29T09:25:33.046Z,101215.28
2023-09-29T09:28:01.337Z,101216.22
2023-09-29T09:30:29.351Z,101218.25
2023-09-29T09:32:58.831Z,101214.16
2023-09-29T09:35:28.775Z,101216.72
2023-09-29T09:37:56.833Z,101215.53
2023-09-29T09:40:25.878Z,101219.22
2023-09-29T09:42:54.482Z,101211.69
2023-09-29T09:45:26.881Z,101211.09
2023-09-29T09:48:00.306Z,101216.34
2023-09-29T09:50:30.254Z,101209.47
2023-09-29T09:53:01.005Z,101207.78
2023-09-29T09:55:35.441Z,101204.81
2023-09-29T09:58:07.716Z,101210.72
2023-09-29T10:00:35.778Z,101212.56
2023-09-29T10:03:12.593Z,101228.22
2023-09-29T10:05:43.141Z,101210.25
2023-09-29T10:08:13.889Z,101201.44
2023-09-29T10:10:43.018Z,101201.28
2023-09-29T10:13:13.661Z,101201.50
2023-09-29T10:15:41.678Z,101206.81
2023-09-29T10:18:19.008Z,101213.00
2023-09-29T10:20:50.670Z,101215.56
2023-09-29T10:23:19.303Z,101213.78
2023-09-29T10:25:58.661Z,101217.31
2023-09-29T10:28:32.696Z,101214.09
2023-09-29T10:31:08.254Z,101207.78
2023-09-29T10:33:53.617Z,101208.03
2023-09-29T10:36:24.447Z,101213.00
2023-09-29T10:38:55.559Z,101212.50
2023-09-29T10:41:34.923Z,101210.69
2023-09-29T10:44:05.499Z,101210.06
2023-09-29T10:46:33.777Z,101217.47
2023-09-29T10:49:03.293Z,101220.09
2023-09-29T10:51:33.067Z,101217.06
2023-09-29T10:54:08.196Z,101221.72
2023-09-29T10:56:37.987Z,101221.66
2023-09-29T10:59:07.140Z,101219.50
2023-09-29T11:01:35.670Z,101207.59
2023-09-29T11:04:06.417Z,101198.13
2023-09-29T11:06:42.177Z,101195.56
2023-09-29T11:09:11.483Z,101196.09
2023-09-29T11:11:40.584Z,101197.16
2023-09-29T11:14:08.766Z,101189.72
2023-09-29T11:16:38.097Z,101197.38
2023-09-29T11:19:13.139Z,101193.50
2023-09-29T11:21:42.340Z,101187.91
2023-09-29T11:24:12.075Z,101192.75
2023-09-29T11:26:41.954Z,101185.25
2023-09-29T11:29:10.640Z,101188.06
2023-09-29T11:31:40.872Z,101192.72
2023-09-29T11:34:10.816Z,101184.50
2023-09-29T11:36:38.778Z,101187.81
2023-09-29T11:39:08.974Z,101178.31
2023-09-29T11:41:37.157Z,101178.53
2023-09-29T11:44:05.498Z,101177.78
2023-09-29T11:46:33.558Z,101172.19
2023-09-29T11:49:01.594Z,101167.53
2023-09-29T11:51:30.938Z,101177.28
2023-09-29T11:53:59.593Z,101173.25
2023-09-29T11:56:27.507Z,101175.88
2023-09-29T11:58:56.066Z,101177.16
2023-09-29T12:01:24.136Z,101176.00
2023-09-29T12:03:52.703Z,101167.03
2023-09-29T12:06:20.664Z,101171.66
2023-09-29T12:08:50.060Z,101170.59
2023-09-29T12:11:20.696Z,101171.00
2023-09-29T12:13:49.994Z,101167.28
2023-09-29T12:16:18.146Z,101158.78
2023-09-29T12:18:46.405Z,101161.44
2023-09-29T12:21:14.626Z,101162.59
2023-09-29T12:23:43.056Z,101168.88
2023-09-29T12:26:12.525Z,101154.63
2023-09-29T12:28:40.615Z,101159.44
2023-09-29T12:31:15.955Z,101149.28
2023-09-29T12:33:46.208Z,101141.22
2023-09-29T12:36:14.790Z,101143.19
2023-09-29T12:38:44.245Z,101136.84
2023-09-29T12:41:14.871Z,101138.34
2023-09-29T12:43:44.063Z,101130.66
2023-09-29T12:46:12.004Z,101128.59
2023-09-29T12:48:40.183Z,101135.31
2023-09-29T12:51:08.222Z,101142.72
2023-09-29T12:53:36.520Z,101127.72
2023-09-29T12:56:05.492Z,101135.00
2023-09-29T12:58:35.286Z,101141.63
2023-09-29T13:01:03.678Z,101140.13
2023-09-29T13:03:31.820Z,101137.91
2023-09-29T13:06:01.480Z,101138.63
2023-09-29T13:08:29.585Z,101139.09
2023-09-29T13:10:57.772Z,101133.78
2023-09-29T13:13:26.610Z,101123.47
2023-09-29T13:15:55.955Z,101118.50
2023-09-29T13:18:24.683Z,101128.66
2023-09-29T13:20:52.851Z,101136.00
2023-09-29T13:23:22.775Z,101128.81
2023-09-29T13:25:52.714Z,101126.78
2023-09-29T13:28:20.863Z,101119.84
2023-09-29T13:30:54.663Z,101117.38
2023-09-29T13:33:28.235Z,101108.66
2023-09-29T13:35:57.655Z,101101.50
2023-09-29T13:38:25.594Z,101101.56
2023-09-29T13:40:54.549Z,101099.47
2023-09-29T13:43:23.169Z,101095.31
2023-09-29T13:45:51.235Z,101084.19
2023-09-29T13:48:23.267Z,101089.75
2023-09-29T13:50:53.417Z,101079.44
2023-09-29T13:53:21.452Z,101077.06
2023-09-29T13:55:50.571Z,101076.53
2023-09-29T13:58:18.527Z,101075.22
2023-09-29T14:00:50.150Z,101073.56
2023-09-29T14:03:20.718Z,101079.97
2023-09-29T14:05:48.913Z,101072.72
2023-09-29T14:08:18.416Z,101071.16
2023-09-29T14:10:46.384Z,101068.53
2023-09-29T14:13:14.376Z,101073.06
2023-09-29T14:15:42.281Z,101072.00
2023-09-29T14:18:10.257Z,101076.81
2023-09-29T14:20:38.524Z,101070.97
2023-09-29T14:23:08.238Z,101075.63
2023-09-29T14:25:37.650Z,101060.03
2023-09-29T14:28:07.221Z,101057.09
2023-09-29T14:30:37.475Z,101055.81
2023-09-29T14:33:05.942Z,101051.59
2023-09-29T14:35:46.548Z,101040.75
2023-09-29T14:38:17.141Z,101044.56
2023-09-29T14:40:46.519Z,101053.56
2023-09-29T14:43:14.757Z,101044.56
2023-09-29T14:45:42.711Z,101045.88
2023-09-29T14:48:11.386Z,101040.31
2023-09-29T14:50:42.299Z,101037.00
2023-09-29T14:53:10.251Z,101038.28
2023-09-29T14:55:39.823Z,101034.75
2023-09-29T14:58:09.751Z,101033.25
2023-09-29T15:00:38.030Z,101029.78
2023-09-29T15:03:06.597Z,101027.63
2023-09-29T15:05:36.856Z,101030.72
2023-09-29T15:08:05.644Z,101026.34
2023-09-29T15:10:33.669Z,101025.56
2023-09-29T15:13:01.969Z,101019.31
2023-09-29T15:15:31.443Z,101018.72
2023-09-29T15:18:00.856Z,101019.66
2023-09-29T15:20:29.335Z,101017.84
2023-09-29T15:22:57.302Z,101011.88
2023-09-29T15:25:25.388Z,101014.97
2023-09-29T15:27:53.461Z,101015.28
2023-09-29T15:30:21.635Z,101011.78
2023-09-29T15:32:51.125Z,101009.31
2023-09-29T15:35:19.149Z,101012.47
2023-09-29T15:37:47.510Z,101007.63
2023-09-29T15:40:15.448Z,101008.50
2023-09-29T15:42:43.506Z,101009.91
2023-09-29T15:45:12.646Z,101017.22
2023-09-29T15:47:40.592Z,101011.50
2023-09-29T15:50:10.734Z,101013.81
2023-09-29T15:52:38.925Z,101009.66
2023-09-29T15:55:07.546Z,101025.63
2023-09-29T15:57:35.725Z,101019.84
2023-09-29T16:00:04.601Z,101030.59
2023-09-29T16:02:37.518Z,101033.09
2023-09-29T16:05:05.857Z,101032.00
2023-09-29T16:07:35.130Z,101027.75
2023-09-29T16:10:03.183Z,101019.63
2023-09-29T16:12:31.453Z,101026.13
2023-09-29T16:14:59.548Z,101026.19
2023-09-29T16:17:27.667Z,101020.78
2023-09-29T16:19:56.214Z,101019.19
2023-09-29T16:22:24.238Z,101016.16
2023-09-29T16:24:53.521Z,101018.22
2023-09-29T16:27:22.966Z,101015.09
2023-09-29T16:29:53.050Z,101017.63
2023-09-29T16:32:31.911Z,101014.50
2023-09-29T16:35:02.056Z,101009.94
2023-09-29T16:37:30.372Z,101013.25
2023-09-29T16:40:03.605Z,101008.88
2023-09-29T16:42:34.349Z,101010.44
2023-09-29T16:45:02.333Z,101013.78
2023-09-29T16:47:30.537Z,101018.56
2023-09-29T16:49:58.732Z,101014.22
2023-09-29T16:52:26.664Z,101024.78
2023-09-29T16:54:54.601Z,101019.63
2023-09-29T16:57:25.072Z,101026.09
2023-09-29T16:59:53.319Z,101026.97
2023-09-29T17:02:21.354Z,101020.28
2023-09-29T17:04:50.377Z,101017.63
2023-09-29T17:07:18.567Z,101014.69
2023-09-29T17:09:47.561Z,101016.59
2023-09-29T17:12:15.433Z,101014.09
2023-09-29T17:14:44.732Z,101006.00
2023-09-29T17:17:12.605Z,101010.78
2023-09-29T17:19:40.814Z,101007.47
2023-09-29T17:22:10.065Z,101001.91
2023-09-29T17:24:38.037Z,101003.78
2023-09-29T17:27:06.058Z,101013.38
2023-09-29T17:29:34.620Z,101011.09
2023-09-29T17:32:04.451Z,101015.44
2023-09-29T17:34:32.625Z,101017.53
2023-09-29T17:37:00.833Z,101018.38
2023-09-29T17:39:28.801Z,101017.97
2023-09-29T17:41:56.806Z,101015.06
2023-09-29T17:44:24.649Z,101022.56
2023-09-29T17:46:52.579Z,101014.88
2023-09-29T17:49:22.065Z,101021.78
2023-09-29T17:51:50.073Z,101023.84
2023-09-29T17:54:18.109Z,101021.34
2023-09-29T17:56:46.513Z,101025.91
2023-09-29T17:59:14.450Z,101022.16
2023-09-29T18:01:42.466Z,101007.81
2023-09-29T18:04:10.609Z,101009.47
2023-09-29T18:06:40.799Z,101013.00
2023-09-29T18:09:10.035Z,101004.69
2023-09-29T18:11:38.485Z,101011.78
2023-09-29T18:14:06.473Z,101010.94
2023-09-29T18:16:34.637Z,101009.28
2023-09-29T18:19:05.614Z,101007.63
2023-09-29T18:21:34.445Z,101015.53
2023-09-29T18:24:06.585Z,101006.38
2023-09-29T18:26:34.870Z,100997.66
2023-09-29T18:29:02.798Z,101005.34
2023-09-29T18:31:30.699Z,101011.78
2023-09-29T18:33:58.709Z,101002.84
2023-09-29T18:36:27.001Z,101000.13
2023-09-29T18:38:55.370Z,101005.97
2023-09-29T18:41:24.950Z,100995.78
2023-09-29T18:43:53.763Z,101004.94
2023-09-29T18:46:22.542Z,101001.59
2023-09-29T18:48:50.714Z,101005.16
2023-09-29T18:51:19.719Z,101010.16
2023-09-29T18:53:47.935Z,101003.94
2023-09-29T18:56:19.026Z,101002.69
2023-09-29T18:58:48.398Z,101001.84
2023-09-29T19:01:16.364Z,101008.28
2023-09-29T19:03:44.401Z,101002.09
2023-09-29T19:06:12.879Z,101004.13
2023-09-29T19:08:41.102Z,101013.94
2023-09-29T19:11:18.740Z,101006.44
2023-09-29T19:13:48.444Z,101010.34
2023-09-29T19:16:16.941Z,101016.34
2023-09-29T19:18:45.603Z,101022.19
2023-09-29T19:21:19.687Z,101015.06
2023-09-29T19:23:52.226Z,101020.47
2023-09-29T19:26:20.145Z,101013.00
2023-09-29T19:28:49.709Z,101007.34
2023-09-29T19:31:17.921Z,101010.69
2023-09-29T19:33:46.052Z,101002.75
2023-09-29T19:36:14.025Z,101017.13
2023-09-29T19:38:42.032Z,101017.50
2023-09-29T19:41:13.332Z,101005.81
2023-09-29T19:43:41.364Z,101020.75
2023-09-29T19:46:11.622Z,101017.63
2023-09-29T19:48:40.012Z,101024.97
2023-09-29T19:51:14.057Z,101015.34
2023-09-29T19:53:42.954Z,101030.31
2023-09-29T19:56:13.054Z,101031.88
2023-09-29T19:58:44.328Z,101032.25
2023-09-29T20:01:14.257Z,101028.34
2023-09-29T20:03:42.932Z,101043.72
2023-09-29T20:06:10.954Z,101036.47
2023-09-29T20:08:39.342Z,101042.34
2023-09-29T20:11:10.473Z,101040.50
2023-09-29T20:13:39.059Z,101047.03
2023-09-29T20:16:07.124Z,101056.97
2023-09-29T20:18:36.417Z,101057.75
2023-09-29T20:21:04.774Z,101055.06
2023-09-29T20:23:32.944Z,101060.34
2023-09-29T20:26:00.876Z,101064.09
2023-09-29T20:28:28.982Z,101068.31
2023-09-29T20:30:57.337Z,101071.84
2023-09-29T20:33:25.346Z,101077.03
2023-09-29T20:35:54.728Z,101089.34
2023-09-29T20:38:22.949Z,101082.91
2023-09-29T20:40:50.954Z,101095.00
2023-09-29T20:43:19.034Z,101093.78
2023-09-29T20:45:47.758Z,101099.03
2023-09-29T20:48:16.315Z,101099.63
2023-09-29T20:50:44.444Z,101114.66
2023-09-29T20:53:14.775Z,101108.59
2023-09-29T20:55:43.364Z,101108.44
2023-09-29T20:58:11.650Z,101124.06
2023-09-29T21:00:39.588Z,101119.25
2023-09-29T21:03:10.678Z,101123.00
2023-09-29T21:05:38.822Z,101134.44
2023-09-29T21:08:07.152Z,101132.34
2023-09-29T21:10:37.524Z,101138.03
2023-09-29T21:13:05.574Z,101129.75
2023-09-29T21:15:33.602Z,101146.19
2023-09-29T21:18:01.595Z,101138.13
2023-09-29T21:20:29.670Z,101140.03
2023-09-29T21:22:57.599Z,101155.84
2023-09-29T21:25:25.702Z,101148.16
2023-09-29T21:27:55.599Z,101157.97
2023-09-29T21:30:23.557Z,101156.69
2023-09-29T21:32:52.348Z,101153.38
2023-09-29T21:35:20.371Z,101155.06
2023-09-29T21:37:48.385Z,101155.25
2023-09-29T21:40:16.569Z,101162.34
2023-09-29T21:42:44.588Z,101164.63
2023-09-29T21:45:14.348Z,101169.84
2023-09-29T21:47:44.907Z,101169.84
2023-09-29T21:50:12.911Z,101169.00
2023-09-29T21:52:40.988Z,101173.56
2023-09-29T21:55:11.138Z,101174.00
2023-09-29T21:57:39.434Z,101178.16
2023-09-29T22:00:20.565Z,101183.13
2023-09-29T22:02:51.110Z,101188.13
2023-09-29T22:05:21.137Z,101187.09
2023-09-29T22:07:50.194Z,101190.16
2023-09-29T22:10:18.419Z,101191.00
2023-09-29T22:12:46.959Z,101197.03
2023-09-29T22:15:16.632Z,101196.81
2023-09-29T22:17:45.033Z,101206.97
2023-09-29T22:20:15.027Z,101210.47
2023-09-29T22:22:43.189Z,101211.28
2023-09-29T22:25:11.815Z,101217.91
2023-09-29T22:27:39.825Z,101227.88
2023-09-29T22:30:08.999Z,101222.66
2023-09-29T22:32:37.085Z,101231.81
2023-09-29T22:35:07.447Z,101241.25
2023-09-29T22:37:36.842Z,101243.75
2023-09-29T22:40:05.216Z,101244.72
2023-09-29T22:42:33.147Z,101250.03
2023-09-29T22:45:06.067Z,101260.31
2023-09-29T22:47:34.028Z,101264.34
2023-09-29T22:50:04.286Z,101271.84
2023-09-29T22:52:32.566Z,101283.53
2023-09-29T22:55:01.952Z,101287.53
2023-09-29T22:57:31.212Z,101292.88
2023-09-29T23:00:00.862Z,101311.41
2023-09-29T23:02:29.258Z,101313.28
2023-09-29T23:04:57.363Z,101315.34
2023-09-29T23:07:25.322Z,101330.97
2023-09-29T23:09:53.563Z,101349.72
2023-09-29T23:12:22.916Z,101344.28
2023-09-29T23:14:51.740Z,101350.97
2023-09-29T23:17:20.358Z,101358.22
2023-09-29T23:19:48.800Z,101361.47
2023-09-29T23:22:17.109Z,101367.63
2023-09-29T23:24:45.192Z,101388.59
2023-09-29T23:27:13.037Z,101389.13
2023-09-29T23:29:42.723Z,101406.38
2023-09-29T23:32:10.602Z,101409.38
2023-09-29T23:34:39.898Z,101432.56
2023-09-29T23:37:07.862Z,101430.75
2023-09-29T23:39:36.203Z,101433.22
2023-09-29T23:42:04.247Z,101439.09
2023-09-29T23:44:34.123Z,101443.63
2023-09-29T23:47:03.470Z,101446.84
2023-09-29T23:49:31.516Z,101452.56
2023-09-29T23:51:59.593Z,101460.94
2023-09-29T23:54:28.531Z,101460.34
2023-09-29T23:56:56.598Z,101462.19
2023-09-29T23:59:24.559Z,101465.84
